sensor_id;sensor_type;location;lat;lon;timestamp;P1;durP1;ratioP1;P2;durP2;ratioP2
2396;SDS011;1209;48.410;9.054;2023-03-01T00:01:35;32.87;;;13.60;;
2396;SDS011;1209;48.410;9.054;2023-03-01T00:04:00;21.77;;;11.67;;
2396;SDS011;1209;48.410;9.054;2023-03-01T00:06:26;18.63;;;11.13;;
2396;SDS011;1209;48.410;9.054;2023-03-01T00:08:51;23.65;;;11.32;;
2396;SDS011;1209;48.410;9.054;2023-03-01T00:11:24;19.73;;;11.13;;
2396;SDS011;1209;48.410;9.054;2023-03-01T00:13:53;28.25;;;10.93;;
2396;SDS011;1209;48.410;9.054;2023-03-01T00:16:22;16.13;;;8.73;;
2396;SDS011;1209;48.410;9.054;2023-03-01T00:18:53;21.05;;;8.20;;
2396;SDS011;1209;48.410;9.054;2023-03-01T00:21:20;22.66;;;10.13;;
2396;SDS011;1209;48.410;9.054;2023-03-01T00:23:47;11.27;;;8.27;;
2396;SDS011;1209;48.410;9.054;2023-03-01T00:26:14;14.60;;;8.68;;
2396;SDS011;1209;48.410;9.054;2023-03-01T00:28:41;12.77;;;8.70;;
2396;SDS011;1209;48.410;9.054;2023-03-01T00:31:11;20.67;;;8.75;;
2396;SDS011;1209;48.410;9.054;2023-03-01T00:33:39;14.38;;;8.95;;
2396;SDS011;1209;48.410;9.054;2023-03-01T00:36:06;20.65;;;10.02;;
2396;SDS011;1209;48.410;9.054;2023-03-01T00:38:36;14.25;;;8.75;;
2396;SDS011;1209;48.410;9.054;2023-03-01T00:41:04;18.42;;;9.50;;
2396;SDS011;1209;48.410;9.054;2023-03-01T00:43:30;12.43;;;8.52;;
2396;SDS011;1209;48.410;9.054;2023-03-01T00:45:55;23.10;;;9.63;;
2396;SDS011;1209;48.410;9.054;2023-03-01T00:48:21;12.37;;;10.07;;
2396;SDS011;1209;48.410;9.054;2023-03-01T00:50:46;19.73;;;9.63;;
2396;SDS011;1209;48.410;9.054;2023-03-01T00:53:11;20.83;;;9.83;;
2396;SDS011;1209;48.410;9.054;2023-03-01T00:55:37;13.03;;;8.50;;
2396;SDS011;1209;48.410;9.054;2023-03-01T00:58:02;12.93;;;8.03;;
2396;SDS011;1209;48.410;9.054;2023-03-01T01:00:27;14.97;;;9.43;;
2396;SDS011;1209;48.410;9.054;2023-03-01T01:02:53;11.50;;;8.02;;
2396;SDS011;1209;48.410;9.054;2023-03-01T01:05:18;16.57;;;8.33;;
2396;SDS011;1209;48.410;9.054;2023-03-01T01:07:45;21.25;;;9.80;;
2396;SDS011;1209;48.410;9.054;2023-03-01T01:10:11;19.67;;;8.07;;
2396;SDS011;1209;48.410;9.054;2023-03-01T01:12:41;23.15;;;10.32;;
2396;SDS011;1209;48.410;9.054;2023-03-01T01:15:07;19.57;;;8.50;;
2396;SDS011;1209;48.410;9.054;2023-03-01T01:17:33;14.17;;;7.93;;
2396;SDS011;1209;48.410;9.054;2023-03-01T01:19:58;17.07;;;7.30;;
2396;SDS011;1209;48.410;9.054;2023-03-01T01:22:23;12.83;;;7.97;;
2396;SDS011;1209;48.410;9.054;2023-03-01T01:24:49;17.07;;;9.27;;
2396;SDS011;1209;48.410;9.054;2023-03-01T01:27:14;19.20;;;8.80;;
2396;SDS011;1209;48.410;9.054;2023-03-01T01:29:39;19.07;;;8.27;;
2396;SDS011;1209;48.410;9.054;2023-03-01T01:32:06;21.05;;;9.57;;
2396;SDS011;1209;48.410;9.054;2023-03-01T01:34:32;16.80;;;8.67;;
2396;SDS011;1209;48.410;9.054;2023-03-01T01:36:57;17.20;;;8.67;;
2396;SDS011;1209;48.410;9.054;2023-03-01T01:39:27;17.85;;;9.63;;
2396;SDS011;1209;48.410;9.054;2023-03-01T01:41:52;18.70;;;8.87;;
2396;SDS011;1209;48.410;9.054;2023-03-01T01:44:25;17.03;;;8.93;;
2396;SDS011;1209;48.410;9.054;2023-03-01T01:47:02;13.70;;;8.10;;
2396;SDS011;1209;48.410;9.054;2023-03-01T01:49:37;13.73;;;8.13;;
2396;SDS011;1209;48.410;9.054;2023-03-01T01:52:25;15.65;;;8.15;;
2396;SDS011;1209;48.410;9.054;2023-03-01T01:55:04;18.55;;;8.60;;
2396;SDS011;1209;48.410;9.054;2023-03-01T01:57:32;11.98;;;7.55;;
2396;SDS011;1209;48.410;9.054;2023-03-01T02:00:04;13.43;;;7.22;;
2396;SDS011;1209;48.410;9.054;2023-03-01T02:02:32;19.02;;;9.27;;
2396;SDS011;1209;48.410;9.054;2023-03-01T02:05:40;14.13;;;7.00;;
2396;SDS011;1209;48.410;9.054;2023-03-01T02:08:08;21.27;;;9.18;;
2396;SDS011;1209;48.410;9.054;2023-03-01T02:10:35;16.27;;;8.60;;
2396;SDS011;1209;48.410;9.054;2023-03-01T02:13:02;18.05;;;10.35;;
2396;SDS011;1209;48.410;9.054;2023-03-01T02:15:31;15.75;;;8.43;;
2396;SDS011;1209;48.410;9.054;2023-03-01T02:17:58;18.20;;;9.10;;
2396;SDS011;1209;48.410;9.054;2023-03-01T02:22:52;14.40;;;8.52;;
2396;SDS011;1209;48.410;9.054;2023-03-01T02:25:22;17.83;;;11.13;;
2396;SDS011;1209;48.410;9.054;2023-03-01T02:30:40;18.00;;;9.50;;
2396;SDS011;1209;48.410;9.054;2023-03-01T02:33:29;15.73;;;9.93;;
2396;SDS011;1209;48.410;9.054;2023-03-01T02:35:57;18.42;;;9.50;;
2396;SDS011;1209;48.410;9.054;2023-03-01T02:38:25;17.35;;;10.85;;
2396;SDS011;1209;48.410;9.054;2023-03-01T02:40:51;18.40;;;10.10;;
2396;SDS011;1209;48.410;9.054;2023-03-01T02:43:17;20.42;;;10.82;;
2396;SDS011;1209;48.410;9.054;2023-03-01T02:45:49;17.02;;;9.02;;
2396;SDS011;1209;48.410;9.054;2023-03-01T02:48:16;15.00;;;9.40;;
2396;SDS011;1209;48.410;9.054;2023-03-01T02:53:38;25.00;;;10.75;;
2396;SDS011;1209;48.410;9.054;2023-03-01T02:56:09;13.27;;;8.25;;
2396;SDS011;1209;48.410;9.054;2023-03-01T02:58:37;15.48;;;9.35;;
2396;SDS011;1209;48.410;9.054;2023-03-01T03:01:10;19.45;;;9.80;;
2396;SDS011;1209;48.410;9.054;2023-03-01T03:03:40;17.65;;;9.50;;
2396;SDS011;1209;48.410;9.054;2023-03-01T03:06:06;19.75;;;10.25;;
2396;SDS011;1209;48.410;9.054;2023-03-01T03:08:31;19.23;;;9.30;;
2396;SDS011;1209;48.410;9.054;2023-03-01T03:10:57;18.70;;;10.70;;
2396;SDS011;1209;48.410;9.054;2023-03-01T03:13:22;19.00;;;9.40;;
2396;SDS011;1209;48.410;9.054;2023-03-01T03:15:53;20.88;;;10.75;;
2396;SDS011;1209;48.410;9.054;2023-03-01T03:18:19;20.77;;;9.80;;
2396;SDS011;1209;48.410;9.054;2023-03-01T03:20:44;24.17;;;12.20;;
2396;SDS011;1209;48.410;9.054;2023-03-01T03:23:10;15.90;;;8.93;;
2396;SDS011;1209;48.410;9.054;2023-03-01T03:25:36;19.00;;;10.25;;
2396;SDS011;1209;48.410;9.054;2023-03-01T03:28:02;18.40;;;9.80;;
2396;SDS011;1209;48.410;9.054;2023-03-01T03:30:34;21.35;;;10.20;;
2396;SDS011;1209;48.410;9.054;2023-03-01T03:33:00;28.10;;;11.10;;
2396;SDS011;1209;48.410;9.054;2023-03-01T03:35:27;16.43;;;9.53;;
2396;SDS011;1209;48.410;9.054;2023-03-01T03:37:58;18.65;;;10.55;;
2396;SDS011;1209;48.410;9.054;2023-03-01T03:40:35;19.17;;;11.13;;
2396;SDS011;1209;48.410;9.054;2023-03-01T03:43:10;19.15;;;10.30;;
2396;SDS011;1209;48.410;9.054;2023-03-01T03:45:37;26.15;;;11.95;;
2396;SDS011;1209;48.410;9.054;2023-03-01T03:48:04;23.10;;;10.70;;
2396;SDS011;1209;48.410;9.054;2023-03-01T03:50:31;20.60;;;11.20;;
2396;SDS011;1209;48.410;9.054;2023-03-01T03:52:57;20.70;;;11.23;;
2396;SDS011;1209;48.410;9.054;2023-03-01T03:55:22;24.37;;;10.73;;
2396;SDS011;1209;48.410;9.054;2023-03-01T03:57:48;19.73;;;10.50;;
2396;SDS011;1209;48.410;9.054;2023-03-01T04:00:20;18.65;;;10.55;;
2396;SDS011;1209;48.410;9.054;2023-03-01T04:02:49;18.88;;;11.27;;
2396;SDS011;1209;48.410;9.054;2023-03-01T04:05:15;18.58;;;10.65;;
2396;SDS011;1209;48.410;9.054;2023-03-01T04:07:43;25.35;;;10.15;;
2396;SDS011;1209;48.410;9.054;2023-03-01T04:10:10;22.67;;;11.23;;
2396;SDS011;1209;48.410;9.054;2023-03-01T04:12:37;22.95;;;11.35;;
2396;SDS011;1209;48.410;9.054;2023-03-01T04:15:03;26.20;;;9.90;;
2396;SDS011;1209;48.410;9.054;2023-03-01T04:17:37;27.80;;;11.73;;
2396;SDS011;1209;48.410;9.054;2023-03-01T04:20:04;17.08;;;10.43;;
2396;SDS011;1209;48.410;9.054;2023-03-01T04:22:30;28.38;;;12.52;;
2396;SDS011;1209;48.410;9.054;2023-03-01T04:24:56;18.20;;;9.88;;
2396;SDS011;1209;48.410;9.054;2023-03-01T04:27:22;21.87;;;11.37;;
2396;SDS011;1209;48.410;9.054;2023-03-01T04:29:47;18.70;;;10.97;;
2396;SDS011;1209;48.410;9.054;2023-03-01T04:32:12;22.03;;;11.80;;
2396;SDS011;1209;48.410;9.054;2023-03-01T04:34:41;21.52;;;10.60;;
2396;SDS011;1209;48.410;9.054;2023-03-01T04:37:06;20.83;;;11.60;;
2396;SDS011;1209;48.410;9.054;2023-03-01T04:39:31;14.90;;;9.67;;
2396;SDS011;1209;48.410;9.054;2023-03-01T04:41:57;16.97;;;9.23;;
2396;SDS011;1209;48.410;9.054;2023-03-01T04:44:22;18.20;;;10.53;;
2396;SDS011;1209;48.410;9.054;2023-03-01T04:46:48;24.27;;;10.80;;
2396;SDS011;1209;48.410;9.054;2023-03-01T04:49:14;22.38;;;10.38;;
2396;SDS011;1209;48.410;9.054;2023-03-01T04:51:40;27.05;;;10.32;;
2396;SDS011;1209;48.410;9.054;2023-03-01T04:54:06;19.60;;;11.43;;
2396;SDS011;1209;48.410;9.054;2023-03-01T04:56:33;18.17;;;9.73;;
2396;SDS011;1209;48.410;9.054;2023-03-01T04:58:59;16.60;;;10.43;;
2396;SDS011;1209;48.410;9.054;2023-03-01T05:01:25;13.35;;;9.75;;
2396;SDS011;1209;48.410;9.054;2023-03-01T05:03:51;17.73;;;9.87;;
2396;SDS011;1209;48.410;9.054;2023-03-01T05:06:17;20.42;;;11.65;;
2396;SDS011;1209;48.410;9.054;2023-03-01T05:08:43;24.52;;;10.45;;
2396;SDS011;1209;48.410;9.054;2023-03-01T05:11:09;16.97;;;10.47;;
2396;SDS011;1209;48.410;9.054;2023-03-01T05:13:36;18.38;;;10.32;;
2396;SDS011;1209;48.410;9.054;2023-03-01T05:16:03;17.88;;;9.90;;
2396;SDS011;1209;48.410;9.054;2023-03-01T05:18:30;22.05;;;10.95;;
2396;SDS011;1209;48.410;9.054;2023-03-01T05:21:04;21.63;;;10.98;;
2396;SDS011;1209;48.410;9.054;2023-03-01T05:23:37;23.27;;;11.85;;
2396;SDS011;1209;48.410;9.054;2023-03-01T05:26:03;27.60;;;10.67;;
2396;SDS011;1209;48.410;9.054;2023-03-01T05:28:30;17.70;;;10.23;;
2396;SDS011;1209;48.410;9.054;2023-03-01T05:30:57;21.45;;;11.18;;
2396;SDS011;1209;48.410;9.054;2023-03-01T05:33:23;21.13;;;10.35;;
2396;SDS011;1209;48.410;9.054;2023-03-01T05:35:50;19.33;;;10.50;;
2396;SDS011;1209;48.410;9.054;2023-03-01T05:38:16;18.85;;;10.70;;
2396;SDS011;1209;48.410;9.054;2023-03-01T05:40:43;18.47;;;10.80;;
2396;SDS011;1209;48.410;9.054;2023-03-01T05:43:09;18.70;;;10.95;;
2396;SDS011;1209;48.410;9.054;2023-03-01T05:45:36;16.38;;;10.07;;
2396;SDS011;1209;48.410;9.054;2023-03-01T05:48:03;19.85;;;10.63;;
2396;SDS011;1209;48.410;9.054;2023-03-01T05:50:31;22.27;;;10.65;;
2396;SDS011;1209;48.410;9.054;2023-03-01T05:53:03;18.70;;;10.63;;
2396;SDS011;1209;48.410;9.054;2023-03-01T05:55:33;22.58;;;11.15;;
2396;SDS011;1209;48.410;9.054;2023-03-01T05:58:00;14.20;;;9.52;;
2396;SDS011;1209;48.410;9.054;2023-03-01T06:00:26;23.90;;;10.55;;
2396;SDS011;1209;48.410;9.054;2023-03-01T06:02:53;18.07;;;10.30;;
2396;SDS011;1209;48.410;9.054;2023-03-01T06:05:19;16.38;;;10.55;;
2396;SDS011;1209;48.410;9.054;2023-03-01T06:07:44;22.90;;;10.47;;
2396;SDS011;1209;48.410;9.054;2023-03-01T06:10:10;17.80;;;10.57;;
2396;SDS011;1209;48.410;9.054;2023-03-01T06:12:37;22.02;;;11.18;;
2396;SDS011;1209;48.410;9.054;2023-03-01T06:15:04;21.10;;;10.27;;
2396;SDS011;1209;48.410;9.054;2023-03-01T06:17:30;22.73;;;11.13;;
2396;SDS011;1209;48.410;9.054;2023-03-01T06:20:02;24.48;;;11.70;;
2396;SDS011;1209;48.410;9.054;2023-03-01T06:22:29;22.50;;;11.77;;
2396;SDS011;1209;48.410;9.054;2023-03-01T06:24:54;23.77;;;11.53;;
2396;SDS011;1209;48.410;9.054;2023-03-01T06:27:19;23.10;;;11.17;;
2396;SDS011;1209;48.410;9.054;2023-03-01T06:29:44;24.40;;;10.80;;
2396;SDS011;1209;48.410;9.054;2023-03-01T06:32:10;22.17;;;11.83;;
2396;SDS011;1209;48.410;9.054;2023-03-01T06:34:35;17.00;;;9.97;;
2396;SDS011;1209;48.410;9.054;2023-03-01T06:37:00;24.73;;;12.50;;
2396;SDS011;1209;48.410;9.054;2023-03-01T06:39:30;20.85;;;11.13;;
2396;SDS011;1209;48.410;9.054;2023-03-01T06:41:55;25.10;;;11.50;;
2396;SDS011;1209;48.410;9.054;2023-03-01T06:44:21;29.47;;;12.13;;
2396;SDS011;1209;48.410;9.054;2023-03-01T06:46:46;21.60;;;11.37;;
2396;SDS011;1209;48.410;9.054;2023-03-01T06:49:11;20.60;;;10.80;;
2396;SDS011;1209;48.410;9.054;2023-03-01T06:51:37;23.77;;;10.57;;
2396;SDS011;1209;48.410;9.054;2023-03-01T06:54:03;23.00;;;12.73;;
2396;SDS011;1209;48.410;9.054;2023-03-01T06:56:30;20.30;;;10.60;;
2396;SDS011;1209;48.410;9.054;2023-03-01T06:58:56;23.38;;;10.70;;
2396;SDS011;1209;48.410;9.054;2023-03-01T07:01:21;22.60;;;11.00;;
2396;SDS011;1209;48.410;9.054;2023-03-01T07:03:46;23.33;;;11.50;;
2396;SDS011;1209;48.410;9.054;2023-03-01T07:06:11;20.60;;;10.93;;
2396;SDS011;1209;48.410;9.054;2023-03-01T07:08:37;23.90;;;11.90;;
2396;SDS011;1209;48.410;9.054;2023-03-01T07:11:02;26.20;;;11.70;;
2396;SDS011;1209;48.410;9.054;2023-03-01T07:13:28;24.58;;;11.40;;
2396;SDS011;1209;48.410;9.054;2023-03-01T07:15:54;21.63;;;11.63;;
2396;SDS011;1209;48.410;9.054;2023-03-01T07:18:19;24.30;;;12.45;;
2396;SDS011;1209;48.410;9.054;2023-03-01T07:20:45;27.07;;;12.77;;
2396;SDS011;1209;48.410;9.054;2023-03-01T07:23:10;28.07;;;13.00;;
2396;SDS011;1209;48.410;9.054;2023-03-01T07:25:35;22.90;;;12.40;;
2396;SDS011;1209;48.410;9.054;2023-03-01T07:28:01;24.53;;;12.03;;
2396;SDS011;1209;48.410;9.054;2023-03-01T07:30:26;19.43;;;11.63;;
2396;SDS011;1209;48.410;9.054;2023-03-01T07:32:53;21.80;;;11.57;;
2396;SDS011;1209;48.410;9.054;2023-03-01T07:35:20;23.30;;;11.00;;
2396;SDS011;1209;48.410;9.054;2023-03-01T07:37:46;29.75;;;13.52;;
2396;SDS011;1209;48.410;9.054;2023-03-01T07:40:11;39.60;;;18.07;;
2396;SDS011;1209;48.410;9.054;2023-03-01T07:42:37;43.03;;;19.00;;
2396;SDS011;1209;48.410;9.054;2023-03-01T07:45:03;25.97;;;13.27;;
2396;SDS011;1209;48.410;9.054;2023-03-01T07:47:30;23.67;;;12.52;;
2396;SDS011;1209;48.410;9.054;2023-03-01T07:49:55;23.43;;;11.87;;
2396;SDS011;1209;48.410;9.054;2023-03-01T07:52:21;25.63;;;12.10;;
2396;SDS011;1209;48.410;9.054;2023-03-01T07:54:46;30.40;;;11.50;;
2396;SDS011;1209;48.410;9.054;2023-03-01T07:57:11;21.23;;;12.53;;
2396;SDS011;1209;48.410;9.054;2023-03-01T07:59:37;23.43;;;11.17;;
2396;SDS011;1209;48.410;9.054;2023-03-01T08:02:02;27.30;;;12.97;;
2396;SDS011;1209;48.410;9.054;2023-03-01T08:04:27;25.37;;;11.57;;
2396;SDS011;1209;48.410;9.054;2023-03-01T08:06:54;20.50;;;10.33;;
2396;SDS011;1209;48.410;9.054;2023-03-01T08:09:20;24.20;;;11.70;;
2396;SDS011;1209;48.410;9.054;2023-03-01T08:11:46;20.83;;;12.03;;
2396;SDS011;1209;48.410;9.054;2023-03-01T08:14:11;24.27;;;11.60;;
2396;SDS011;1209;48.410;9.054;2023-03-01T08:16:36;17.33;;;10.83;;
2396;SDS011;1209;48.410;9.054;2023-03-01T08:19:06;28.20;;;13.20;;
2396;SDS011;1209;48.410;9.054;2023-03-01T08:21:35;25.20;;;12.82;;
2396;SDS011;1209;48.410;9.054;2023-03-01T08:24:02;23.90;;;12.10;;
2396;SDS011;1209;48.410;9.054;2023-03-01T08:26:28;28.00;;;13.00;;
2396;SDS011;1209;48.410;9.054;2023-03-01T08:28:53;27.10;;;13.57;;
2396;SDS011;1209;48.410;9.054;2023-03-01T08:33:46;27.83;;;14.50;;
2396;SDS011;1209;48.410;9.054;2023-03-01T08:36:15;24.95;;;12.70;;
2396;SDS011;1209;48.410;9.054;2023-03-01T08:38:42;23.35;;;12.70;;
2396;SDS011;1209;48.410;9.054;2023-03-01T08:41:07;22.33;;;13.33;;
2396;SDS011;1209;48.410;9.054;2023-03-01T08:43:32;18.20;;;12.13;;
2396;SDS011;1209;48.410;9.054;2023-03-01T08:45:58;29.93;;;14.47;;
2396;SDS011;1209;48.410;9.054;2023-03-01T08:48:23;32.23;;;15.37;;
2396;SDS011;1209;48.410;9.054;2023-03-01T08:50:48;28.60;;;14.53;;
2396;SDS011;1209;48.410;9.054;2023-03-01T08:53:14;24.10;;;13.47;;
2396;SDS011;1209;48.410;9.054;2023-03-01T08:55:39;22.50;;;13.83;;
2396;SDS011;1209;48.410;9.054;2023-03-01T08:58:05;29.20;;;12.67;;
2396;SDS011;1209;48.410;9.054;2023-03-01T09:00:30;23.30;;;11.93;;
2396;SDS011;1209;48.410;9.054;2023-03-01T09:02:55;22.43;;;13.40;;
2396;SDS011;1209;48.410;9.054;2023-03-01T09:05:21;31.23;;;12.80;;
2396;SDS011;1209;48.410;9.054;2023-03-01T09:07:46;40.70;;;19.33;;
2396;SDS011;1209;48.410;9.054;2023-03-01T09:10:11;43.47;;;20.17;;
2396;SDS011;1209;48.410;9.054;2023-03-01T09:12:36;46.03;;;21.80;;
2396;SDS011;1209;48.410;9.054;2023-03-01T09:15:02;30.90;;;16.67;;
2396;SDS011;1209;48.410;9.054;2023-03-01T09:17:28;22.73;;;13.07;;
2396;SDS011;1209;48.410;9.054;2023-03-01T09:19:53;20.90;;;13.07;;
2396;SDS011;1209;48.410;9.054;2023-03-01T09:22:18;23.57;;;13.17;;
2396;SDS011;1209;48.410;9.054;2023-03-01T09:24:43;25.70;;;13.30;;
2396;SDS011;1209;48.410;9.054;2023-03-01T09:27:09;19.80;;;12.10;;
2396;SDS011;1209;48.410;9.054;2023-03-01T09:29:36;28.48;;;13.98;;
2396;SDS011;1209;48.410;9.054;2023-03-01T09:32:02;24.00;;;12.82;;
2396;SDS011;1209;48.410;9.054;2023-03-01T09:34:27;31.30;;;15.20;;
2396;SDS011;1209;48.410;9.054;2023-03-01T09:36:52;24.10;;;13.20;;
2396;SDS011;1209;48.410;9.054;2023-03-01T09:39:18;31.27;;;16.07;;
2396;SDS011;1209;48.410;9.054;2023-03-01T09:47:25;27.83;;;14.95;;
2396;SDS011;1209;48.410;9.054;2023-03-01T09:49:58;22.27;;;11.32;;
2396;SDS011;1209;48.410;9.054;2023-03-01T09:52:34;21.98;;;13.38;;
2396;SDS011;1209;48.410;9.054;2023-03-01T09:55:12;24.35;;;13.15;;
2396;SDS011;1209;48.410;9.054;2023-03-01T10:05:27;32.90;;;14.33;;
2396;SDS011;1209;48.410;9.054;2023-03-01T10:10:33;23.45;;;13.57;;
2396;SDS011;1209;48.410;9.054;2023-03-01T10:13:03;25.58;;;15.57;;
2396;SDS011;1209;48.410;9.054;2023-03-01T10:15:52;19.17;;;12.10;;
2396;SDS011;1209;48.410;9.054;2023-03-01T10:18:20;20.00;;;11.80;;
2396;SDS011;1209;48.410;9.054;2023-03-01T10:23:42;15.25;;;9.93;;
2396;SDS011;1209;48.410;9.054;2023-03-01T10:28:50;25.73;;;11.07;;
2396;SDS011;1209;48.410;9.054;2023-03-01T10:31:27;19.80;;;12.07;;
2396;SDS011;1209;48.410;9.054;2023-03-01T10:34:02;19.20;;;12.05;;
2396;SDS011;1209;48.410;9.054;2023-03-01T10:36:33;22.30;;;13.35;;
2396;SDS011;1209;48.410;9.054;2023-03-01T10:38:59;20.20;;;11.88;;
2396;SDS011;1209;48.410;9.054;2023-03-01T10:41:25;18.63;;;11.50;;
2396;SDS011;1209;48.410;9.054;2023-03-01T10:43:55;24.38;;;14.25;;
2396;SDS011;1209;48.410;9.054;2023-03-01T10:49:05;26.42;;;13.35;;
2396;SDS011;1209;48.410;9.054;2023-03-01T10:51:31;19.70;;;12.07;;
2396;SDS011;1209;48.410;9.054;2023-03-01T10:53:57;25.97;;;12.63;;
2396;SDS011;1209;48.410;9.054;2023-03-01T10:56:22;26.53;;;13.53;;
2396;SDS011;1209;48.410;9.054;2023-03-01T10:59:02;21.87;;;12.03;;
2396;SDS011;1209;48.410;9.054;2023-03-01T11:01:29;24.50;;;14.40;;
2396;SDS011;1209;48.410;9.054;2023-03-01T11:06:32;21.20;;;12.18;;
2396;SDS011;1209;48.410;9.054;2023-03-01T11:09:13;20.97;;;11.47;;
2396;SDS011;1209;48.410;9.054;2023-03-01T11:11:46;20.80;;;12.13;;
2396;SDS011;1209;48.410;9.054;2023-03-01T11:14:20;21.83;;;12.05;;
2396;SDS011;1209;48.410;9.054;2023-03-01T11:16:48;28.30;;;15.57;;
2396;SDS011;1209;48.410;9.054;2023-03-01T11:19:23;22.00;;;13.50;;
2396;SDS011;1209;48.410;9.054;2023-03-01T11:24:17;20.90;;;11.17;;
2396;SDS011;1209;48.410;9.054;2023-03-01T11:26:45;20.52;;;10.57;;
2396;SDS011;1209;48.410;9.054;2023-03-01T11:29:24;18.73;;;11.60;;
2396;SDS011;1209;48.410;9.054;2023-03-01T11:31:55;17.83;;;11.82;;
2396;SDS011;1209;48.410;9.054;2023-03-01T11:34:34;16.48;;;11.00;;
2396;SDS011;1209;48.410;9.054;2023-03-01T11:40:13;20.67;;;10.95;;
2396;SDS011;1209;48.410;9.054;2023-03-01T11:45:21;20.43;;;12.67;;
2396;SDS011;1209;48.410;9.054;2023-03-01T11:48:05;27.52;;;15.52;;
2396;SDS011;1209;48.410;9.054;2023-03-01T11:50:45;26.17;;;14.40;;
2396;SDS011;1209;48.410;9.054;2023-03-01T12:07:10;30.07;;;16.73;;
2396;SDS011;1209;48.410;9.054;2023-03-01T12:09:55;22.38;;;13.50;;
2396;SDS011;1209;48.410;9.054;2023-03-01T12:12:26;27.67;;;14.55;;
2396;SDS011;1209;48.410;9.054;2023-03-01T12:18:01;25.73;;;14.00;;
2396;SDS011;1209;48.410;9.054;2023-03-01T12:25:51;23.77;;;14.40;;
2396;SDS011;1209;48.410;9.054;2023-03-01T12:31:16;19.92;;;12.07;;
2396;SDS011;1209;48.410;9.054;2023-03-01T12:51:23;17.60;;;9.97;;
2396;SDS011;1209;48.410;9.054;2023-03-01T12:53:51;22.03;;;11.17;;
2396;SDS011;1209;48.410;9.054;2023-03-01T12:56:21;24.47;;;13.53;;
2396;SDS011;1209;48.410;9.054;2023-03-01T13:01:30;26.27;;;12.77;;
2396;SDS011;1209;48.410;9.054;2023-03-01T13:09:30;18.02;;;11.50;;
2396;SDS011;1209;48.410;9.054;2023-03-01T13:11:59;17.67;;;10.93;;
2396;SDS011;1209;48.410;9.054;2023-03-01T13:16:50;17.67;;;10.50;;
2396;SDS011;1209;48.410;9.054;2023-03-01T13:19:17;18.17;;;11.00;;
2396;SDS011;1209;48.410;9.054;2023-03-01T13:21:45;26.77;;;12.77;;
2396;SDS011;1209;48.410;9.054;2023-03-01T13:29:52;20.20;;;10.63;;
2396;SDS011;1209;48.410;9.054;2023-03-01T13:32:28;20.03;;;11.30;;
2396;SDS011;1209;48.410;9.054;2023-03-01T13:37:48;19.07;;;11.03;;
2396;SDS011;1209;48.410;9.054;2023-03-01T13:42:44;16.57;;;9.60;;
2396;SDS011;1209;48.410;9.054;2023-03-01T13:47:42;19.80;;;10.70;;
2396;SDS011;1209;48.410;9.054;2023-03-01T13:50:16;15.50;;;10.83;;
2396;SDS011;1209;48.410;9.054;2023-03-01T13:52:47;19.10;;;9.97;;
2396;SDS011;1209;48.410;9.054;2023-03-01T13:57:44;14.50;;;8.97;;
2396;SDS011;1209;48.410;9.054;2023-03-01T14:03:17;21.47;;;10.57;;
2396;SDS011;1209;48.410;9.054;2023-03-01T14:05:56;31.47;;;13.07;;
2396;SDS011;1209;48.410;9.054;2023-03-01T14:08:26;23.30;;;12.53;;
2396;SDS011;1209;48.410;9.054;2023-03-01T14:16:30;19.60;;;11.80;;
2396;SDS011;1209;48.410;9.054;2023-03-01T14:21:49;18.37;;;10.60;;
2396;SDS011;1209;48.410;9.054;2023-03-01T14:24:27;20.00;;;12.20;;
2396;SDS011;1209;48.410;9.054;2023-03-01T14:26:52;18.67;;;11.57;;
2396;SDS011;1209;48.410;9.054;2023-03-01T14:29:26;25.30;;;10.73;;
2396;SDS011;1209;48.410;9.054;2023-03-01T14:31:53;33.90;;;17.90;;
2396;SDS011;1209;48.410;9.054;2023-03-01T14:34:20;21.73;;;11.80;;
2396;SDS011;1209;48.410;9.054;2023-03-01T14:36:49;20.77;;;11.67;;
2396;SDS011;1209;48.410;9.054;2023-03-01T14:39:19;20.10;;;12.33;;
2396;SDS011;1209;48.410;9.054;2023-03-01T14:41:50;22.40;;;12.13;;
2396;SDS011;1209;48.410;9.054;2023-03-01T14:44:17;23.63;;;12.40;;
2396;SDS011;1209;48.410;9.054;2023-03-01T14:46:51;18.83;;;11.93;;
2396;SDS011;1209;48.410;9.054;2023-03-01T14:49:19;16.40;;;10.35;;
2396;SDS011;1209;48.410;9.054;2023-03-01T14:52:07;18.30;;;11.43;;
2396;SDS011;1209;48.410;9.054;2023-03-01T14:54:43;24.23;;;11.17;;
2396;SDS011;1209;48.410;9.054;2023-03-01T14:59:41;17.00;;;10.23;;
2396;SDS011;1209;48.410;9.054;2023-03-01T15:02:08;23.27;;;10.60;;
2396;SDS011;1209;48.410;9.054;2023-03-01T15:04:42;20.70;;;11.63;;
2396;SDS011;1209;48.410;9.054;2023-03-01T15:07:09;18.13;;;10.70;;
2396;SDS011;1209;48.410;9.054;2023-03-01T15:09:38;20.40;;;11.90;;
2396;SDS011;1209;48.410;9.054;2023-03-01T15:14:51;16.00;;;11.13;;
2396;SDS011;1209;48.410;9.054;2023-03-01T15:17:24;18.73;;;10.37;;
2396;SDS011;1209;48.410;9.054;2023-03-01T15:19:55;23.93;;;11.83;;
2396;SDS011;1209;48.410;9.054;2023-03-01T15:22:21;26.87;;;11.90;;
2396;SDS011;1209;48.410;9.054;2023-03-01T15:24:48;19.10;;;11.10;;
2396;SDS011;1209;48.410;9.054;2023-03-01T15:27:18;19.90;;;11.40;;
2396;SDS011;1209;48.410;9.054;2023-03-01T15:29:48;19.50;;;11.07;;
2396;SDS011;1209;48.410;9.054;2023-03-01T15:34:51;21.53;;;10.87;;
2396;SDS011;1209;48.410;9.054;2023-03-01T15:40:19;25.10;;;12.83;;
2396;SDS011;1209;48.410;9.054;2023-03-01T15:42:45;22.00;;;11.27;;
2396;SDS011;1209;48.410;9.054;2023-03-01T15:47:41;27.33;;;13.60;;
2396;SDS011;1209;48.410;9.054;2023-03-01T15:50:23;18.58;;;11.20;;
2396;SDS011;1209;48.410;9.054;2023-03-01T15:52:51;34.73;;;15.30;;
2396;SDS011;1209;48.410;9.054;2023-03-01T15:55:21;23.23;;;12.70;;
2396;SDS011;1209;48.410;9.054;2023-03-01T15:57:49;18.13;;;10.50;;
2396;SDS011;1209;48.410;9.054;2023-03-01T16:00:15;18.58;;;10.48;;
2396;SDS011;1209;48.410;9.054;2023-03-01T16:02:43;25.83;;;12.70;;
2396;SDS011;1209;48.410;9.054;2023-03-01T16:05:19;32.47;;;12.27;;
2396;SDS011;1209;48.410;9.054;2023-03-01T16:07:48;19.02;;;10.85;;
2396;SDS011;1209;48.410;9.054;2023-03-01T16:10:13;18.87;;;10.87;;
2396;SDS011;1209;48.410;9.054;2023-03-01T16:12:38;20.97;;;11.70;;
2396;SDS011;1209;48.410;9.054;2023-03-01T16:15:04;25.73;;;11.93;;
2396;SDS011;1209;48.410;9.054;2023-03-01T16:17:37;19.05;;;11.02;;
2396;SDS011;1209;48.410;9.054;2023-03-01T16:20:02;19.53;;;11.23;;
2396;SDS011;1209;48.410;9.054;2023-03-01T16:22:29;22.03;;;11.60;;
2396;SDS011;1209;48.410;9.054;2023-03-01T16:24:54;31.10;;;12.07;;
2396;SDS011;1209;48.410;9.054;2023-03-01T16:27:19;21.90;;;12.50;;
2396;SDS011;1209;48.410;9.054;2023-03-01T16:29:45;26.07;;;13.13;;
2396;SDS011;1209;48.410;9.054;2023-03-01T16:32:10;28.37;;;14.13;;
2396;SDS011;1209;48.410;9.054;2023-03-01T16:34:35;23.10;;;13.90;;
2396;SDS011;1209;48.410;9.054;2023-03-01T16:37:01;26.27;;;14.57;;
2396;SDS011;1209;48.410;9.054;2023-03-01T16:39:26;22.50;;;13.20;;
2396;SDS011;1209;48.410;9.054;2023-03-01T16:41:51;25.93;;;11.70;;
2396;SDS011;1209;48.410;9.054;2023-03-01T16:44:17;20.07;;;12.00;;
2396;SDS011;1209;48.410;9.054;2023-03-01T16:46:42;24.73;;;11.03;;
2396;SDS011;1209;48.410;9.054;2023-03-01T16:49:08;22.33;;;12.00;;
2396;SDS011;1209;48.410;9.054;2023-03-01T16:51:34;21.83;;;11.20;;
2396;SDS011;1209;48.410;9.054;2023-03-01T16:54:00;21.25;;;12.18;;
2396;SDS011;1209;48.410;9.054;2023-03-01T16:56:25;24.40;;;13.00;;
2396;SDS011;1209;48.410;9.054;2023-03-01T16:58:51;21.83;;;11.50;;
2396;SDS011;1209;48.410;9.054;2023-03-01T17:01:17;23.50;;;13.60;;
2396;SDS011;1209;48.410;9.054;2023-03-01T17:03:45;25.57;;;11.70;;
2396;SDS011;1209;48.410;9.054;2023-03-01T17:06:13;27.70;;;12.85;;
2396;SDS011;1209;48.410;9.054;2023-03-01T17:08:40;23.75;;;12.27;;
2396;SDS011;1209;48.410;9.054;2023-03-01T17:11:06;21.10;;;12.53;;
2396;SDS011;1209;48.410;9.054;2023-03-01T17:13:34;19.27;;;12.50;;
2396;SDS011;1209;48.410;9.054;2023-03-01T17:16:00;21.50;;;12.07;;